Time;durP1;ratioP1;P1;durP2;ratioP2;P2;SDS_P1;SDS_P2;PMS_P1;PMS_P2;Temp;Humidity;BMP_temperature;BMP_pressure;BME280_temperature;BME280_humidity;BME280_pressure;Samples;Min_cycle;Max_cycle;Signal;HPM_P1;HPM_P2
2020/12/26 00:01:20;;;;;;;3.17;1.85;;;;;;;5.66;85.62;97411.66;1716925;83;21219;-66
2020/12/26 00:03:49;;;;;;;2.65;2.12;;;;;;;5.70;85.68;97414.33;1716781;83;21307;-67
2020/12/26 00:06:21;;;;;;;3.37;2.08;;;;;;;5.74;85.55;97419.11;1717010;83;21168;-66
2020/12/26 00:08:51;;;;;;;3.50;1.87;;;;;;;5.74;85.08;97425.55;1716789;83;21371;-66
2020/12/26 00:11:20;;;;;;;2.30;1.62;;;;;;;5.74;84.72;97415.24;1716856;83;21180;-65
2020/12/26 00:13:53;;;;;;;4.67;2.50;;;;;;;5.70;83.87;97413.04;1716821;83;21290;-66
2020/12/26 00:16:19;;;;;;;4.10;2.00;;;;;;;5.71;84.00;97409.06;1717096;83;21175;-66
2020/12/26 00:18:48;;;;;;;4.03;2.52;;;;;;;5.70;83.88;97408.70;1716879;83;21596;-66
2020/12/26 00:21:22;;;;;;;6.33;3.22;;;;;;;5.69;83.98;97410.11;1738431;80;21568;-66
2020/12/26 00:23:50;;;;;;;4.40;2.40;;;;;;;5.67;84.01;97414.59;1739200;81;21181;-66
2020/12/26 00:26:19;;;;;;;3.15;2.40;;;;;;;5.63;83.95;97414.02;1738908;81;21185;-66
2020/12/26 00:28:46;;;;;;;4.55;2.20;;;;;;;5.61;84.11;97421.51;1738485;81;21348;-66
2020/12/26 00:31:17;;;;;;;4.67;2.30;;;;;;;5.59;84.17;97428.56;1738833;81;21169;-66
2020/12/26 00:33:45;;;;;;;4.28;2.10;;;;;;;5.56;84.29;97432.67;1738588;81;21724;-66
2020/12/26 00:36:13;;;;;;;5.40;3.15;;;;;;;5.51;84.29;97434.80;1738556;81;21198;-66
2020/12/26 00:38:42;;;;;;;4.83;2.50;;;;;;;5.47;84.40;97440.67;1738867;81;21153;-66
2020/12/26 00:41:14;;;;;;;4.90;2.52;;;;;;;5.42;84.45;97444.55;1738686;81;21174;-66
2020/12/26 00:43:43;;;;;;;3.02;1.30;;;;;;;5.39;84.55;97443.51;1738847;81;21158;-65
2020/12/26 00:46:11;;;;;;;2.85;1.50;;;;;;;5.35;84.25;97449.84;1738585;81;21344;-66
2020/12/26 00:48:39;;;;;;;2.62;1.55;;;;;;;5.31;84.07;97452.31;1738555;81;21173;-65
2020/12/26 00:51:11;;;;;;;2.15;1.82;;;;;;;5.25;83.99;97451.85;1738934;81;21173;-65
2020/12/26 00:53:40;;;;;;;2.95;1.32;;;;;;;5.19;83.86;97453.64;1738559;81;21311;-65
2020/12/26 00:56:08;;;;;;;2.42;1.25;;;;;;;5.14;83.92;97460.08;1738729;81;21161;-65
2020/12/26 00:58:39;;;;;;;2.50;1.37;;;;;;;5.09;83.99;97462.22;1738444;81;21301;-66
2020/12/26 01:01:08;;;;;;;6.87;2.10;;;;;;;5.04;84.08;97451.46;1738813;81;21165;-65
2020/12/26 01:03:42;;;;;;;3.45;1.77;;;;;;;5.00;84.22;97450.89;1723994;81;21154;-65
2020/12/26 01:06:15;;;;;;;4.90;2.62;;;;;;;4.97;84.31;97453.70;1738884;81;21126;-65
2020/12/26 01:08:43;;;;;;;3.70;1.77;;;;;;;4.93;84.36;97452.31;1738839;81;21174;-65
2020/12/26 01:11:11;;;;;;;3.45;2.10;;;;;;;4.89;84.55;97451.38;1715774;81;21579;-66
2020/12/26 01:13:39;;;;;;;3.27;1.75;;;;;;;4.86;84.67;97452.45;1738710;81;21162;-65
2020/12/26 01:16:33;;;;;;;3.20;1.55;;;;;;;4.81;84.70;97449.41;1738566;81;21255;-66
2020/12/26 01:19:01;;;;;;;3.02;1.95;;;;;;;4.78;84.71;97455.62;1723970;83;21269;-66
2020/12/26 01:21:29;;;;;;;3.30;1.17;;;;;;;4.75;84.69;97458.87;1725323;83;21166;-65
2020/12/26 01:23:57;;;;;;;5.35;1.98;;;;;;;4.73;84.72;97469.30;1724226;83;21133;-65
2020/12/26 01:26:25;;;;;;;3.08;1.87;;;;;;;4.70;84.94;97466.14;1723964;83;21150;-65
2020/12/26 01:28:53;;;;;;;4.35;2.55;;;;;;;4.68;84.98;97462.39;1724126;83;21138;-65
2020/12/26 01:31:22;;;;;;;5.40;2.58;;;;;;;4.66;85.29;97464.73;1724214;83;21149;-65
2020/12/26 01:33:51;;;;;;;3.77;2.12;;;;;;;4.62;85.60;97468.02;1724089;83;21256;-65
2020/12/26 01:36:19;;;;;;;4.85;2.30;;;;;;;4.62;85.51;97468.48;1724163;83;21522;-64
2020/12/26 01:38:47;;;;;;;5.25;3.10;;;;;;;4.59;85.75;97461.02;1724147;83;21231;-65
2020/12/26 01:41:15;;;;;;;3.42;2.33;;;;;;;4.57;85.98;97459.83;1724905;83;21151;-66
2020/12/26 01:44:01;;;;;;;3.33;2.27;;;;;;;4.56;85.82;97465.08;1724937;83;21268;-66
2020/12/26 01:46:32;;;;;;;3.72;2.27;;;;;;;4.53;85.90;97476.42;1724880;83;21146;-65
2020/12/26 01:49:01;;;;;;;3.37;1.95;;;;;;;4.50;85.97;97484.84;1725370;83;21279;-66
2020/12/26 01:51:31;;;;;;;2.35;1.70;;;;;;;4.46;86.36;97485.55;1724247;83;21130;-66
2020/12/26 01:54:01;;;;;;;3.20;1.98;;;;;;;4.45;85.87;97488.22;1723979;83;21275;-66
2020/12/26 01:56:30;;;;;;;3.30;1.77;;;;;;;4.45;85.58;97498.51;1724298;83;21153;-66
2020/12/26 01:58:58;;;;;;;4.03;2.33;;;;;;;4.45;85.60;97507.05;1724043;83;21708;-65
2020/12/26 02:01:39;;;;;;;2.70;1.37;;;;;;;4.38;85.48;97514.05;1724052;83;21245;-65
2020/12/26 02:04:11;;;;;;;3.10;1.72;;;;;;;4.40;85.43;97510.42;1723497;83;21256;-65
2020/12/26 02:06:43;;;;;;;3.42;1.85;;;;;;;4.41;85.41;97506.09;1724190;83;21126;-65
2020/12/26 02:09:12;;;;;;;3.27;2.02;;;;;;;4.41;85.22;97499.67;1724246;83;21145;-66
2020/12/26 02:11:40;;;;;;;4.92;1.62;;;;;;;4.43;85.17;97493.50;1723967;83;21201;-65
2020/12/26 02:14:09;;;;;;;2.27;1.67;;;;;;;4.47;85.01;97489.77;1724208;83;21133;-66
2020/12/26 02:16:52;;;;;;;2.45;2.02;;;;;;;4.36;84.17;97476.88;1723830;83;21287;-64
2020/12/26 02:19:23;;;;;;;1.85;1.25;;;;;;;4.45;84.13;97485.66;1719566;83;21165;-65
2020/12/26 02:21:52;;;;;;;2.65;1.82;;;;;;;4.42;83.54;97483.32;1719373;83;21595;-65
2020/12/26 02:24:20;;;;;;;2.80;1.55;;;;;;;4.45;83.80;97485.19;1695343;85;21175;-65
2020/12/26 02:26:48;;;;;;;1.87;1.55;;;;;;;4.44;82.56;97487.86;1676642;85;21191;-65
2020/12/26 02:29:16;;;;;;;1.80;1.25;;;;;;;4.44;82.89;97491.25;1676705;85;21153;-65
2020/12/26 02:31:44;;;;;;;1.95;1.45;;;;;;;4.43;82.79;97501.67;1676687;85;21202;-65
2020/12/26 02:34:12;;;;;;;3.27;2.02;;;;;;;4.37;82.30;97504.23;1676680;85;21191;-65
2020/12/26 02:36:40;;;;;;;1.72;1.27;;;;;;;4.35;82.32;97497.11;1676714;85;21204;-65
2020/12/26 02:39:08;;;;;;;2.67;1.80;;;;;;;4.37;82.40;97487.98;1676740;85;21179;-65
2020/12/26 02:41:38;;;;;;;2.67;1.62;;;;;;;4.32;81.80;97484.96;1676548;85;21608;-65
2020/12/26 02:44:06;;;;;;;2.17;0.98;;;;;;;4.33;82.28;97487.86;1676688;85;21250;-65
2020/12/26 02:46:35;;;;;;;2.25;1.30;;;;;;;4.28;82.17;97485.17;1676887;85;21572;-66
2020/12/26 02:49:03;;;;;;;2.30;1.47;;;;;;;4.27;82.38;97479.70;1676505;85;21581;-66
2020/12/26 02:51:34;;;;;;;2.45;1.40;;;;;;;4.21;81.79;97489.14;1676799;85;21187;-65
2020/12/26 02:54:01;;;;;;;2.30;1.20;;;;;;;4.21;82.04;97487.85;1676573;85;21198;-66
2020/12/26 02:56:29;;;;;;;2.62;1.32;;;;;;;4.16;82.09;97502.78;1676545;85;21214;-65
2020/12/26 02:58:57;;;;;;;3.50;1.95;;;;;;;4.11;81.92;97511.33;1676590;85;21159;-65
2020/12/26 03:01:25;;;;;;;2.25;1.55;;;;;;;4.02;81.92;97521.45;1676563;85;21203;-65
2020/12/26 03:03:53;;;;;;;1.35;1.25;;;;;;;4.04;82.25;97525.56;1676491;85;21242;-65
2020/12/26 03:06:21;;;;;;;1.25;0.93;;;;;;;4.04;82.56;97524.28;1676738;85;21203;-65
2020/12/26 03:08:48;;;;;;;2.25;1.75;;;;;;;4.08;82.55;97530.83;1676535;85;21194;-65
2020/12/26 03:11:16;;;;;;;2.62;1.40;;;;;;;4.11;82.23;97534.91;1676818;85;21183;-65
2020/12/26 03:13:44;;;;;;;2.50;1.55;;;;;;;4.08;81.32;97527.44;1676565;85;21215;-64
2020/12/26 03:16:12;;;;;;;3.02;1.87;;;;;;;4.08;81.49;97517.16;1676498;85;21179;-65
2020/12/26 03:18:40;;;;;;;1.40;1.10;;;;;;;4.05;81.56;97511.77;1674132;84;21191;-65
2020/12/26 03:21:09;;;;;;;2.60;1.77;;;;;;;4.08;81.97;97510.73;1673068;86;21718;-65
2020/12/26 03:23:38;;;;;;;3.83;1.90;;;;;;;4.07;81.76;97513.77;1673537;86;21166;-66
2020/12/26 03:26:06;;;;;;;1.67;1.32;;;;;;;4.07;81.85;97515.52;1696336;84;21702;-66
2020/12/26 03:28:34;;;;;;;3.50;1.67;;;;;;;4.05;82.03;97518.65;1696466;84;21305;-65
2020/12/26 03:31:04;;;;;;;3.30;1.92;;;;;;;4.01;81.73;97514.70;1696256;83;21175;-65
2020/12/26 03:33:32;;;;;;;1.70;1.17;;;;;;;3.98;82.04;97515.72;1696409;84;21715;-64
2020/12/26 03:35:59;;;;;;;3.42;1.87;;;;;;;3.93;81.65;97510.58;1696345;84;21211;-65
2020/12/26 03:38:27;;;;;;;3.92;1.87;;;;;;;3.85;81.26;97508.58;1696352;84;21163;-64
2020/12/26 03:40:55;;;;;;;1.82;1.27;;;;;;;3.76;81.35;97513.09;1696364;84;21548;-65
2020/12/26 03:43:23;;;;;;;3.37;1.52;;;;;;;3.71;81.82;97506.17;1696456;84;21314;-65
2020/12/26 03:45:51;;;;;;;2.62;1.62;;;;;;;3.68;81.89;97505.12;1696398;84;21293;-65
2020/12/26 03:48:19;;;;;;;2.67;1.27;;;;;;;3.65;82.02;97504.89;1696539;84;21365;-65
2020/12/26 03:50:47;;;;;;;2.50;1.62;;;;;;;3.56;82.25;97506.00;1696492;84;21293;-66
2020/12/26 03:53:15;;;;;;;2.92;1.62;;;;;;;3.56;82.39;97518.38;1696411;84;21289;-64
2020/12/26 03:55:43;;;;;;;2.80;1.22;;;;;;;3.55;82.51;97524.89;1696288;84;21162;-65
2020/12/26 03:58:10;;;;;;;2.87;1.50;;;;;;;3.54;82.50;97530.98;1696348;84;21147;-65
2020/12/26 04:00:39;;;;;;;1.85;1.17;;;;;;;3.50;82.66;97537.27;1696262;84;21195;-66
2020/12/26 04:03:07;;;;;;;3.00;1.47;;;;;;;3.48;82.81;97545.06;1696285;84;21600;-64
2020/12/26 04:05:35;;;;;;;2.95;1.70;;;;;;;3.43;82.91;97540.70;1696333;84;21612;-65
2020/12/26 04:08:03;;;;;;;2.47;1.30;;;;;;;3.43;83.09;97543.27;1696401;83;21293;-66
2020/12/26 04:10:31;;;;;;;2.75;1.55;;;;;;;3.44;83.06;97552.63;1696380;84;21301;-65
2020/12/26 04:12:59;;;;;;;1.30;1.17;;;;;;;3.43;83.02;97551.44;1696351;84;21369;-65
2020/12/26 04:15:27;;;;;;;2.50;1.72;;;;;;;3.39;83.27;97551.30;1696495;83;21295;-65
2020/12/26 04:17:55;;;;;;;2.65;1.65;;;;;;;3.35;83.12;97545.10;1696518;84;21171;-65
2020/12/26 04:20:23;;;;;;;3.45;2.12;;;;;;;3.35;83.07;97541.71;1696317;84;21714;-66
2020/12/26 04:22:51;;;;;;;2.35;1.20;;;;;;;3.34;82.86;97533.68;1696484;84;21290;-65
2020/12/26 04:25:19;;;;;;;2.50;1.40;;;;;;;3.33;82.85;97522.59;1696513;84;21293;-65
2020/12/26 04:27:46;;;;;;;1.70;1.27;;;;;;;3.33;82.91;97523.87;1696738;84;21128;-65
2020/12/26 04:30:15;;;;;;;2.87;1.92;;;;;;;3.31;82.62;97522.33;1696518;84;21285;-65
2020/12/26 04:32:42;;;;;;;1.55;1.45;;;;;;;3.29;82.44;97521.63;1696675;84;21273;-65
2020/12/26 04:35:11;;;;;;;2.30;1.35;;;;;;;3.27;82.75;97516.59;1697083;84;21301;-74
2020/12/26 04:37:39;;;;;;;1.98;1.67;;;;;;;3.26;82.90;97503.42;1727268;83;21154;-70
2020/12/26 04:40:07;;;;;;;2.30;1.45;;;;;;;3.25;83.01;97502.24;1696708;84;21286;-65
2020/12/26 04:42:36;;;;;;;2.67;1.57;;;;;;;3.24;83.10;97510.86;1726117;83;21141;-66
2020/12/26 04:45:05;;;;;;;2.65;1.40;;;;;;;3.13;83.81;97507.77;1696336;84;21199;-65
2020/12/26 04:47:43;;;;;;;3.62;2.55;;;;;;;3.04;83.78;97519.13;1726217;83;21141;-65
2020/12/26 04:50:16;;;;;;;2.47;1.40;;;;;;;2.98;83.64;97530.66;1696767;84;21195;-65
2020/12/26 04:52:46;;;;;;;4.17;2.22;;;;;;;2.92;83.09;97527.21;1726456;83;21145;-65
2020/12/26 04:55:17;;;;;;;3.60;2.20;;;;;;;2.90;83.52;97526.52;1696444;84;21237;-65
2020/12/26 04:57:48;;;;;;;3.08;2.20;;;;;;;2.88;84.10;97540.38;1726011;83;21134;-65
2020/12/26 05:00:18;;;;;;;2.62;1.85;;;;;;;2.91;84.11;97544.00;1696414;84;21726;-65
2020/12/26 05:02:49;;;;;;;1.98;1.65;;;;;;;2.92;82.41;97538.75;1726099;83;21107;-65
2020/12/26 05:05:16;;;;;;;1.80;1.47;;;;;;;2.93;82.08;97543.42;1696509;84;21302;-65
2020/12/26 05:07:44;;;;;;;2.30;0.98;;;;;;;2.97;81.82;97555.94;1726374;83;21206;-65
2020/12/26 05:10:13;;;;;;;1.65;1.47;;;;;;;3.04;82.26;97553.30;1696342;84;21301;-65
2020/12/26 05:12:43;;;;;;;2.90;1.72;;;;;;;3.10;81.88;97541.80;1726157;83;21542;-65
2020/12/26 05:15:11;;;;;;;1.55;1.25;;;;;;;3.09;81.72;97536.31;1696430;84;21385;-65
2020/12/26 05:17:39;;;;;;;3.12;1.35;;;;;;;3.15;82.08;97541.83;1726229;83;21149;-65
2020/12/26 05:20:07;;;;;;;2.02;1.27;;;;;;;3.21;81.70;97537.56;1694929;84;21694;-66
2020/12/26 05:22:35;;;;;;;2.83;1.37;;;;;;;3.27;81.97;97526.03;1675370;86;21179;-65
2020/12/26 05:25:15;;;;;;;1.70;1.20;;;;;;;3.32;81.50;97533.77;1735792;83;21151;-66
2020/12/26 05:27:43;;;;;;;2.90;1.85;;;;;;;3.34;81.28;97545.23;1735712;83;21154;-66
2020/12/26 05:30:14;;;;;;;1.52;1.25;;;;;;;3.38;80.44;97549.68;1735744;83;21143;-65
2020/12/26 05:32:45;;;;;;;1.70;1.25;;;;;;;3.41;80.51;97552.84;1711027;83;21804;-66
2020/12/26 05:35:13;;;;;;;1.22;0.88;;;;;;;3.34;79.34;97557.60;1735836;83;21257;-66
2020/12/26 05:37:41;;;;;;;3.58;1.80;;;;;;;3.37;79.98;97564.71;1735808;83;21167;-65
2020/12/26 05:40:09;;;;;;;2.52;1.22;;;;;;;3.41;80.40;97557.16;1736173;83;21261;-66
2020/12/26 05:42:42;;;;;;;2.10;1.50;;;;;;;3.44;80.26;97551.80;1735874;82;21187;-65
2020/12/26 05:45:11;;;;;;;2.95;1.35;;;;;;;3.46;80.44;97560.23;1735000;82;21180;-66
2020/12/26 05:47:40;;;;;;;1.62;1.25;;;;;;;3.43;80.15;97559.13;1735578;83;21297;-65
2020/12/26 05:50:13;;;;;;;2.55;1.77;;;;;;;3.41;79.92;97566.96;1735840;83;21158;-66
2020/12/26 05:52:48;;;;;;;2.98;1.72;;;;;;;3.38;79.26;97581.77;1733180;81;21163;-66
2020/12/26 05:55:17;;;;;;;3.05;2.12;;;;;;;3.29;79.72;97584.04;1734902;82;21165;-65
2020/12/26 05:57:50;;;;;;;2.37;1.32;;;;;;;3.23;79.53;97584.45;1735790;83;21226;-65
2020/12/26 06:00:35;;;;;;;3.62;1.85;;;;;;;3.20;79.96;97591.08;1735765;82;21163;-65
2020/12/26 06:03:26;;;;;;;3.62;1.75;;;;;;;3.10;79.59;97604.20;1714356;83;21151;-65
2020/12/26 06:05:58;;;;;;;1.77;1.00;;;;;;;3.03;79.93;97596.58;1735786;83;21163;-65
2020/12/26 06:08:27;;;;;;;3.58;1.80;;;;;;;2.98;80.40;97598.63;1735493;82;21148;-65
2020/12/26 06:10:59;;;;;;;1.47;1.22;;;;;;;2.95;80.64;97596.73;1735716;82;21320;-66
2020/12/26 06:13:29;;;;;;;2.85;1.05;;;;;;;2.91;80.92;97602.53;1735969;83;21174;-66
2020/12/26 06:16:24;;;;;;;2.70;2.00;;;;;;;2.88;81.12;97616.03;1735638;82;21177;-66
2020/12/26 06:19:20;;;;;;;2.20;1.70;;;;;;;2.85;81.27;97626.02;1708122;83;21258;-66
2020/12/26 06:21:51;;;;;;;2.92;1.40;;;;;;;2.80;81.37;97629.37;1685289;84;21183;-65
2020/12/26 06:24:20;;;;;;;3.05;1.98;;;;;;;2.76;81.58;97640.27;1684996;84;21199;-66
2020/12/26 06:26:52;;;;;;;4.90;1.98;;;;;;;2.72;81.53;97634.19;1685204;84;21148;-66
2020/12/26 06:29:22;;;;;;;2.42;1.82;;;;;;;2.69;81.78;97636.47;1685302;84;21164;-63
2020/12/26 06:31:51;;;;;;;2.17;1.55;;;;;;;2.67;81.28;97640.90;1685031;84;21626;-64
2020/12/26 06:34:20;;;;;;;1.65;1.12;;;;;;;2.64;81.44;97642.39;1646039;86;21159;-65
2020/12/26 06:36:52;;;;;;;1.57;1.27;;;;;;;2.60;81.54;97635.82;1639982;87;21313;-64
2020/12/26 06:39:28;;;;;;;1.72;1.22;;;;;;;2.57;81.46;97645.45;1704815;83;21623;-65
2020/12/26 06:42:19;;;;;;;1.87;1.22;;;;;;;2.51;81.38;97656.09;1704677;83;21187;-64
2020/12/26 06:44:48;;;;;;;2.08;1.40;;;;;;;2.53;81.46;97663.24;1704750;83;21603;-65
2020/12/26 06:47:37;;;;;;;3.10;1.95;;;;;;;2.48;81.54;97663.99;1704534;83;21592;-64
2020/12/26 06:50:23;;;;;;;2.85;1.80;;;;;;;2.47;81.41;97663.63;1696775;83;21167;-64
2020/12/26 06:52:52;;;;;;;3.00;1.95;;;;;;;2.51;81.67;97667.63;1704660;83;21213;-64
2020/12/26 06:55:42;;;;;;;2.30;1.37;;;;;;;2.47;81.36;97682.84;1704482;83;21171;-64
2020/12/26 06:58:27;;;;;;;3.55;1.87;;;;;;;2.45;81.82;97682.14;1704729;83;21572;-64
2020/12/26 07:00:56;;;;;;;5.58;2.75;;;;;;;2.47;81.70;97684.13;1682302;83;28456;-65
2020/12/26 07:03:31;;;;;;;4.15;1.80;;;;;;;2.62;81.31;97685.69;1697111;83;21195;-65
2020/12/26 07:06:03;;;;;;;2.83;1.60;;;;;;;2.53;81.13;97690.95;1696883;83;21238;-64
2020/12/26 07:08:33;;;;;;;2.75;1.80;;;;;;;2.53;80.73;97694.00;1697112;83;22797;-65
2020/12/26 07:11:06;;;;;;;3.12;1.80;;;;;;;2.52;80.82;97702.60;1697131;83;21179;-64
2020/12/26 07:13:48;;;;;;;2.42;1.40;;;;;;;2.52;79.98;97710.29;1697120;83;21561;-65
2020/12/26 07:16:43;;;;;;;4.05;1.98;;;;;;;2.44;79.78;97707.39;1680034;83;21175;-64
2020/12/26 07:19:30;;;;;;;1.75;1.45;;;;;;;2.38;80.78;97709.42;1697098;83;21259;-66
2020/12/26 07:22:08;;;;;;;3.75;1.27;;;;;;;2.35;80.53;97710.91;1688044;83;21623;-63
2020/12/26 07:24:44;;;;;;;1.62;1.52;;;;;;;2.36;80.49;97720.70;1697178;83;21226;-64
2020/12/26 07:27:38;;;;;;;2.08;1.42;;;;;;;2.38;80.31;97739.35;1697178;83;21180;-65
2020/12/26 07:30:16;;;;;;;1.42;1.32;;;;;;;2.36;80.49;97747.61;1696980;83;21183;-64
2020/12/26 07:32:55;;;;;;;5.92;1.85;;;;;;;2.29;80.18;97748.47;1697209;83;21163;-64
2020/12/26 07:35:39;;;;;;;1.45;0.80;;;;;;;2.37;80.21;97753.11;1697134;83;21178;-64
2020/12/26 07:38:14;;;;;;;1.90;1.05;;;;;;;2.37;79.65;97760.80;1696911;83;21242;-64
2020/12/26 07:40:45;;;;;;;3.20;1.72;;;;;;;2.37;79.50;97762.08;1697141;84;21167;-66
2020/12/26 07:43:17;;;;;;;1.85;1.00;;;;;;;2.43;79.31;97772.38;1696999;83;21600;-66
2020/12/26 07:45:47;;;;;;;6.78;1.25;;;;;;;2.44;79.24;97776.59;1697236;83;21584;-66
2020/12/26 07:48:17;;;;;;;1.32;0.85;;;;;;;2.50;79.89;97781.31;1696983;83;21723;-65
2020/12/26 07:50:46;;;;;;;2.27;1.47;;;;;;;2.40;78.35;97782.37;1697095;83;21148;-66
2020/12/26 07:53:15;;;;;;;1.10;0.93;;;;;;;2.49;78.65;97781.77;1697278;83;21148;-66
2020/12/26 07:55:43;;;;;;;3.17;1.42;;;;;;;2.39;78.11;97794.36;1697479;83;21172;-64
2020/12/26 07:58:20;;;;;;;1.05;0.80;;;;;;;2.42;78.14;97801.48;1697168;83;21640;-64
2020/12/26 08:00:49;;;;;;;0.78;0.70;;;;;;;2.47;79.10;97795.62;1697338;83;21163;-63
2020/12/26 08:03:17;;;;;;;3.20;2.02;;;;;;;2.53;79.46;97787.55;1697397;83;21223;-64
2020/12/26 08:05:58;;;;;;;1.67;1.47;;;;;;;2.58;79.13;97793.19;1697462;83;21159;-64
2020/12/26 08:08:27;;;;;;;3.75;1.90;;;;;;;2.60;78.99;97796.04;1697246;83;21171;-63
2020/12/26 08:11:01;;;;;;;1.57;0.80;;;;;;;2.57;78.61;97795.41;1697123;83;21167;-65
2020/12/26 08:13:31;;;;;;;2.35;1.27;;;;;;;2.59;78.40;97802.53;1697199;83;21183;-66
2020/12/26 08:16:25;;;;;;;5.87;2.45;;;;;;;2.66;78.91;97817.42;1697568;83;21180;-65
2020/12/26 08:18:53;;;;;;;0.65;0.65;;;;;;;2.70;78.87;97815.03;1650557;87;21191;-67
2020/12/26 08:21:22;;;;;;;2.08;1.47;;;;;;;2.77;78.99;97826.54;1719253;82;21914;-66
2020/12/26 08:24:18;;;;;;;3.67;1.72;;;;;;;2.80;78.77;97831.95;1719278;83;21600;-66
2020/12/26 08:26:47;;;;;;;2.10;1.40;;;;;;;2.83;78.17;97847.96;1621537;87;21161;-65
2020/12/26 08:29:16;;;;;;;4.00;2.00;;;;;;;2.86;78.40;97852.06;1681182;85;21184;-69
2020/12/26 08:31:46;;;;;;;3.20;1.62;;;;;;;2.88;77.98;97860.95;1681078;84;21188;-66
2020/12/26 08:34:37;;;;;;;2.22;1.47;;;;;;;2.88;78.05;97859.19;1676921;84;21184;-66
2020/12/26 08:37:21;;;;;;;1.85;1.17;;;;;;;2.86;77.67;97865.72;1704886;83;21211;-65
2020/12/26 08:39:57;;;;;;;1.72;1.12;;;;;;;2.88;77.50;97860.47;1704990;84;21193;-65
2020/12/26 08:42:28;;;;;;;2.70;1.27;;;;;;;2.88;77.43;97854.05;1704796;84;21606;-65
2020/12/26 08:44:56;;;;;;;2.87;1.15;;;;;;;2.83;76.53;97859.95;1705311;84;21261;-67
2020/12/26 08:47:32;;;;;;;4.65;1.50;;;;;;;2.88;77.36;97860.47;1705291;84;21190;-65
2020/12/26 08:50:00;;;;;;;2.20;1.52;;;;;;;2.92;77.34;97867.05;1705247;83;21162;-64
2020/12/26 08:52:28;;;;;;;4.00;1.67;;;;;;;2.94;76.36;97858.81;1705028;84;21300;-64
2020/12/26 08:55:08;;;;;;;6.45;2.25;;;;;;;2.98;76.30;97851.28;1705031;83;21304;-67
2020/12/26 08:57:38;;;;;;;3.22;1.98;;;;;;;3.06;77.10;97859.31;1705035;84;21310;-66
2020/12/26 09:00:22;;;;;;;0.85;0.72;;;;;;;3.14;76.76;97867.80;1705004;83;21293;-64
2020/12/26 09:02:53;;;;;;;2.05;1.47;;;;;;;3.23;76.83;97862.08;1704873;83;21166;-66
2020/12/26 09:05:30;;;;;;;2.22;1.65;;;;;;;3.28;75.90;97862.13;1704795;84;21182;-66
2020/12/26 09:08:09;;;;;;;2.60;1.62;;;;;;;3.41;76.38;97858.75;1705122;83;21166;-66
2020/12/26 09:10:39;;;;;;;2.30;2.10;;;;;;;3.49;75.06;97847.52;1704847;84;21204;-66
2020/12/26 09:13:13;;;;;;;5.92;2.52;;;;;;;3.54;74.48;97851.41;1704801;84;21147;-66
2020/12/26 09:15:57;;;;;;;2.80;1.75;;;;;;;3.60;74.62;97849.73;1704818;83;21598;-66
2020/12/26 09:18:27;;;;;;;2.98;2.05;;;;;;;3.71;74.34;97835.71;1704853;84;21587;-66
2020/12/26 09:20:59;;;;;;;4.12;1.95;;;;;;;3.74;73.77;97825.22;1705082;84;21717;-67
2020/12/26 09:23:35;;;;;;;4.60;2.45;;;;;;;3.88;74.53;97817.88;1705142;83;21296;-66
2020/12/26 09:26:19;;;;;;;2.90;1.60;;;;;;;4.04;73.83;97819.77;1667972;85;21135;-65
2020/12/26 09:28:59;;;;;;;4.03;1.50;;;;;;;4.24;74.84;97816.61;1668655;84;21150;-66
2020/12/26 09:31:38;;;;;;;2.70;1.50;;;;;;;4.49;72.92;97814.43;1668880;86;21313;-66
2020/12/26 09:34:22;;;;;;;4.42;2.00;;;;;;;4.72;71.71;97825.19;1668675;86;21193;-66
2020/12/26 09:37:09;;;;;;;2.40;1.55;;;;;;;4.92;69.32;97826.80;1668518;84;21165;-66
2020/12/26 09:39:38;;;;;;;2.35;1.37;;;;;;;5.08;67.83;97824.75;1668765;85;21161;-66
2020/12/26 09:42:06;;;;;;;3.22;1.87;;;;;;;5.44;71.57;97833.64;1668635;86;21182;-66
2020/12/26 09:44:35;;;;;;;4.47;2.10;;;;;;;5.58;69.23;97832.59;1668761;86;21312;-66
2020/12/26 09:47:06;;;;;;;2.55;1.90;;;;;;;5.91;70.09;97826.23;1668795;85;21383;-66
2020/12/26 09:49:34;;;;;;;2.45;1.90;;;;;;;5.92;66.82;97833.00;1668836;85;21382;-66
2020/12/26 09:52:02;;;;;;;2.83;1.65;;;;;;;5.94;67.08;97846.61;1705057;84;21167;-66
2020/12/26 09:54:30;;;;;;;2.95;1.75;;;;;;;5.91;66.50;97833.97;1705101;83;21292;-66
2020/12/26 09:56:58;;;;;;;3.20;1.95;;;;;;;5.94;67.92;97841.92;1705038;83;21321;-66
2020/12/26 09:59:25;;;;;;;2.15;1.45;;;;;;;5.91;69.55;97835.25;1704908;84;21296;-66
2020/12/26 10:01:53;;;;;;;3.08;2.02;;;;;;;5.68;65.43;97818.11;1705091;84;21682;-66
2020/12/26 10:04:21;;;;;;;3.37;1.77;;;;;;;5.75;69.47;97825.72;1705071;83;21304;-66
2020/12/26 10:06:49;;;;;;;2.67;1.17;;;;;;;5.65;65.90;97824.76;1705074;83;21316;-66
2020/12/26 10:09:17;;;;;;;4.25;1.55;;;;;;;5.63;69.94;97821.49;1704780;84;21178;-66
2020/12/26 10:11:45;;;;;;;2.45;1.32;;;;;;;5.33;65.90;97821.20;1704720;84;21162;-66
2020/12/26 10:14:12;;;;;;;1.60;1.37;;;;;;;5.38;69.51;97820.38;1705060;84;21305;-65
2020/12/26 10:16:40;;;;;;;4.78;1.52;;;;;;;5.29;69.05;97829.63;1705039;83;21131;-65
2020/12/26 10:19:08;;;;;;;4.58;2.10;;;;;;;5.18;68.56;97832.97;1704804;84;21194;-66
2020/12/26 10:21:36;;;;;;;2.00;1.25;;;;;;;5.13;69.48;97827.82;1704901;83;21576;-66
2020/12/26 10:24:04;;;;;;;2.35;1.60;;;;;;;5.08;69.87;97819.14;1704811;84;21588;-64
2020/12/26 10:26:32;;;;;;;2.50;1.30;;;;;;;5.05;69.12;97810.83;1705107;83;21316;-64
2020/12/26 10:29:01;;;;;;;2.67;1.52;;;;;;;5.04;70.64;97818.19;1704769;84;21158;-66
2020/12/26 10:31:29;;;;;;;2.47;1.55;;;;;;;4.98;68.40;97827.16;1704846;84;21703;-64
2020/12/26 10:33:58;;;;;;;1.72;1.35;;;;;;;4.94;69.11;97824.45;1704818;84;21130;-65
2020/12/26 10:36:26;;;;;;;1.85;1.05;;;;;;;4.92;69.69;97825.50;1701092;82;21186;-65
2020/12/26 10:38:54;;;;;;;2.52;1.30;;;;;;;4.90;70.16;97829.49;1697406;83;21135;-66
2020/12/26 10:41:22;;;;;;;1.60;1.07;;;;;;;4.78;68.06;97823.94;1697708;84;21167;-65
2020/12/26 10:43:50;;;;;;;1.95;1.35;;;;;;;4.84;69.14;97829.92;1697459;84;21170;-66
2020/12/26 10:46:18;;;;;;;2.35;1.17;;;;;;;4.89;69.86;97826.56;1697450;84;21168;-66
2020/12/26 10:48:45;;;;;;;3.00;1.55;;;;;;;4.88;67.81;97824.08;1697338;84;21158;-66
2020/12/26 10:51:13;;;;;;;1.07;0.88;;;;;;;4.76;68.00;97828.36;1697442;83;21179;-66
2020/12/26 10:53:41;;;;;;;1.77;1.22;;;;;;;4.79;67.19;97825.56;1697419;83;21163;-65
2020/12/26 10:56:09;;;;;;;1.37;0.93;;;;;;;4.76;69.00;97820.18;1697557;83;21226;-66
2020/12/26 10:58:37;;;;;;;2.83;1.75;;;;;;;4.75;68.87;97821.56;1697583;84;21174;-65
2020/12/26 11:01:05;;;;;;;1.42;0.90;;;;;;;4.49;66.81;97833.72;1697661;83;21246;-65
2020/12/26 11:03:33;;;;;;;1.30;1.07;;;;;;;4.58;69.36;97832.25;1697465;84;21166;-65
2020/12/26 11:06:01;;;;;;;2.10;1.60;;;;;;;4.58;69.93;97835.65;1697357;83;21162;-65
2020/12/26 11:08:29;;;;;;;2.75;1.05;;;;;;;4.42;66.68;97843.25;1697493;83;21242;-66
2020/12/26 11:10:57;;;;;;;4.20;1.52;;;;;;;4.38;67.26;97839.25;1697322;83;21127;-65
2020/12/26 11:13:25;;;;;;;2.27;1.17;;;;;;;4.35;67.61;97841.59;1697213;84;21175;-65
2020/12/26 11:15:53;;;;;;;1.92;1.35;;;;;;;4.34;67.59;97850.22;1697345;83;21187;-65
2020/12/26 11:18:21;;;;;;;1.98;1.37;;;;;;;4.33;68.95;97828.46;1697191;84;21175;-65
2020/12/26 11:20:49;;;;;;;1.60;1.15;;;;;;;4.27;66.80;97841.30;1697360;84;21242;-65
2020/12/26 11:23:17;;;;;;;2.25;1.12;;;;;;;4.22;67.58;97830.50;1697414;84;21177;-65
2020/12/26 11:25:45;;;;;;;3.90;1.40;;;;;;;4.17;67.11;97821.82;1697405;84;21167;-66
2020/12/26 11:28:14;;;;;;;9.95;1.87;;;;;;;4.15;66.38;97837.00;1697455;84;21166;-65
2020/12/26 11:30:42;;;;;;;2.08;1.47;;;;;;;4.15;67.77;97837.83;1697880;84;21294;-65
2020/12/26 11:33:10;;;;;;;1.85;1.50;;;;;;;4.16;69.57;97841.22;1697503;84;21128;-65
2020/12/26 11:35:38;;;;;;;2.12;1.10;;;;;;;4.08;67.29;97844.32;1697339;82;21584;-66
2020/12/26 11:38:06;;;;;;;1.60;1.27;;;;;;;4.08;69.38;97832.76;1697399;84;21191;-66
2020/12/26 11:40:34;;;;;;;4.20;1.40;;;;;;;4.11;70.50;97834.28;1697673;84;21135;-66
2020/12/26 11:43:04;;;;;;;0.70;0.68;;;;;;;4.11;69.48;97838.97;1697752;83;21285;-66
2020/12/26 11:45:32;;;;;;;1.50;1.00;;;;;;;4.14;70.37;97840.49;1697557;84;21171;-66
2020/12/26 11:48:01;;;;;;;1.22;1.02;;;;;;;4.13;69.67;97837.55;1697410;83;21155;-65
2020/12/26 11:50:29;;;;;;;1.35;1.00;;;;;;;4.13;70.32;97841.41;1697515;84;21170;-65
2020/12/26 11:52:57;;;;;;;1.80;1.00;;;;;;;4.10;70.02;97839.05;1697559;84;21174;-66
2020/12/26 11:55:26;;;;;;;1.90;1.22;;;;;;;4.07;69.82;97837.53;1697406;84;21184;-66
2020/12/26 11:57:53;;;;;;;2.55;1.25;;;;;;;4.07;69.48;97838.81;1697420;84;21186;-65
2020/12/26 12:00:22;;;;;;;4.12;1.37;;;;;;;4.05;69.71;97833.41;1697451;84;21221;-66